createdAt,value
2018-11-02T00:01:33.226Z,97.50
2018-11-02T00:06:36.430Z,97.10
2018-11-02T00:11:39.576Z,96.90
2018-11-02T00:16:42.681Z,96.80
2018-11-02T00:21:45.890Z,96.80
2018-11-02T00:26:49.073Z,96.50
2018-11-02T00:31:52.246Z,96.30
2018-11-02T00:36:55.331Z,96.50
2018-11-02T00:41:58.508Z,96.30
2018-11-02T00:47:01.620Z,96.30
2018-11-02T00:52:05.195Z,96.30
2018-11-02T00:57:08.345Z,96.40
2018-11-02T01:02:11.474Z,96.40
2018-11-02T01:07:14.634Z,96.40
2018-11-02T01:12:17.861Z,96.30
2018-11-02T01:17:20.998Z,96.30
2018-11-02T01:22:24.158Z,96.30
2018-11-02T01:27:27.322Z,96.50
2018-11-02T01:32:30.497Z,96.40
2018-11-02T01:37:33.665Z,96.40
2018-11-02T01:42:36.809Z,96.40
2018-11-02T01:47:39.941Z,96.40
2018-11-02T01:52:43.121Z,96.50
2018-11-02T01:57:46.268Z,96.50
2018-11-02T02:02:49.454Z,96.60
2018-11-02T02:07:52.579Z,96.70
2018-11-02T02:12:55.770Z,96.60
2018-11-02T02:17:58.943Z,96.50
2018-11-02T02:23:02.104Z,96.50
2018-11-02T02:28:05.326Z,96.50
2018-11-02T02:33:08.508Z,96.50
2018-11-02T02:38:11.599Z,96.50
2018-11-02T02:43:14.768Z,96.60
2018-11-02T02:48:17.917Z,96.60
2018-11-02T02:53:21.114Z,96.60
2018-11-02T02:58:24.235Z,96.30
2018-11-02T03:03:27.373Z,96.40
2018-11-02T03:08:30.586Z,96.50
2018-11-02T03:13:33.694Z,96.50
2018-11-02T03:18:36.966Z,96.60
2018-11-02T03:23:40.054Z,96.70
2018-11-02T03:28:43.249Z,96.80
2018-11-02T03:33:46.420Z,96.80
2018-11-02T03:38:49.515Z,96.60
2018-11-02T03:43:52.653Z,96.50
2018-11-02T03:48:55.788Z,96.60
2018-11-02T03:53:58.933Z,96.60
2018-11-02T03:59:02.059Z,96.60
2018-11-02T04:04:05.717Z,96.60
2018-11-02T04:09:09.580Z,96.70
2018-11-02T04:14:15.536Z,96.80
2018-11-02T04:19:18.665Z,96.80
2018-11-02T04:24:21.816Z,96.90
2018-11-02T04:29:24.983Z,97.00
2018-11-02T04:34:28.120Z,97.20
2018-11-02T04:39:31.287Z,97.40
2018-11-02T04:44:34.409Z,97.50
2018-11-02T04:49:37.555Z,97.40
2018-11-02T04:54:40.687Z,97.60
2018-11-02T04:59:43.856Z,97.60
2018-11-02T05:04:46.929Z,97.70
2018-11-02T05:09:50.069Z,97.80
2018-11-02T05:14:53.203Z,97.90
2018-11-02T05:19:56.342Z,98.00
2018-11-02T05:24:59.470Z,98.10
2018-11-02T05:30:02.667Z,98.20
2018-11-02T05:35:05.961Z,98.30
2018-11-02T05:40:09.432Z,98.30
2018-11-02T05:45:12.590Z,98.40
2018-11-02T05:50:15.709Z,98.30
2018-11-02T05:55:18.878Z,98.50
2018-11-02T06:00:21.967Z,98.70
2018-11-02T06:05:25.113Z,98.80
2018-11-02T06:10:28.241Z,99.20
2018-11-02T06:15:31.505Z,99.40
2018-11-02T06:20:34.593Z,99.20
2018-11-02T06:25:37.729Z,99.10
2018-11-02T06:30:40.897Z,99.00
2018-11-02T06:35:44.026Z,99.10
2018-11-02T06:40:47.241Z,99.10
2018-11-02T06:45:50.370Z,99.00
2018-11-02T06:50:53.536Z,99.00
2018-11-02T06:55:56.688Z,98.60
2018-11-02T07:00:59.878Z,98.40
2018-11-02T07:06:03.043Z,98.70
2018-11-02T07:11:06.182Z,97.50
2018-11-02T07:16:09.369Z,95.60
2018-11-02T07:21:12.485Z,93.30
2018-11-02T07:26:15.691Z,92.10
2018-11-02T07:31:19.168Z,91.40
2018-11-02T07:36:22.346Z,91.50
2018-11-02T07:41:25.532Z,92.40
2018-11-02T07:46:28.733Z,93.10
2018-11-02T07:51:31.812Z,93.70
2018-11-02T07:56:35.066Z,93.80
2018-11-02T08:01:38.194Z,94.20
2018-11-02T08:06:41.354Z,94.60
2018-11-02T08:11:44.505Z,95.20
2018-11-02T08:16:47.687Z,95.50
2018-11-02T08:21:50.816Z,95.40
2018-11-02T08:26:54.005Z,94.90
2018-11-02T08:31:57.144Z,94.90
2018-11-02T08:37:00.238Z,94.90
2018-11-02T08:42:03.409Z,94.70
2018-11-02T08:47:06.575Z,94.50
2018-11-02T08:52:09.712Z,94.40
2018-11-02T08:57:12.843Z,94.30
2018-11-02T09:02:15.980Z,94.20
2018-11-02T09:07:19.172Z,93.30
2018-11-02T09:12:22.338Z,93.00
2018-11-02T09:17:25.498Z,92.50
2018-11-02T09:22:28.664Z,92.30
2018-11-02T09:27:31.832Z,91.60
2018-11-02T09:32:34.948Z,90.30
2018-11-02T09:37:38.112Z,88.40
2018-11-02T09:42:41.428Z,86.00
2018-11-02T09:47:44.734Z,85.90
2018-11-02T09:52:47.846Z,87.30
2018-11-02T09:57:51.079Z,87.70
2018-11-02T10:02:54.169Z,88.30
2018-11-02T10:07:57.316Z,89.70
2018-11-02T10:13:00.465Z,90.10
2018-11-02T10:18:03.593Z,90.00
2018-11-02T10:23:06.793Z,89.80
2018-11-02T10:28:10.001Z,88.90
2018-11-02T10:33:13.055Z,88.90
2018-11-02T10:38:16.338Z,88.00
2018-11-02T10:43:20.295Z,86.50
2018-11-02T10:48:24.856Z,84.20
2018-11-02T10:53:28.085Z,76.50
2018-11-02T10:58:31.210Z,70.40
2018-11-02T11:03:34.347Z,65.40
2018-11-02T11:08:37.458Z,60.40
2018-11-02T11:13:41.043Z,58.00
2018-11-02T11:18:43.722Z,50.90
2018-11-02T11:23:46.916Z,48.50
2018-11-02T11:28:50.033Z,47.50
2018-11-02T11:33:53.202Z,47.80
2018-11-02T11:38:56.354Z,46.00
2018-11-02T11:43:59.481Z,47.00
2018-11-02T11:49:02.742Z,46.60
2018-11-02T11:54:05.875Z,47.10
2018-11-02T11:59:08.991Z,46.70
2018-11-02T12:04:12.178Z,46.40
2018-11-02T12:09:15.369Z,44.60
2018-11-02T12:14:18.502Z,43.10
2018-11-02T12:19:21.673Z,41.40
2018-11-02T12:24:24.798Z,42.70
2018-11-02T12:29:27.974Z,42.80
2018-11-02T12:34:31.090Z,41.50
2018-11-02T12:39:34.276Z,43.50
2018-11-02T12:44:37.368Z,43.90
2018-11-02T12:49:40.777Z,43.60
2018-11-02T12:54:44.569Z,41.30
2018-11-02T12:59:47.721Z,42.30
2018-11-02T13:04:50.901Z,45.20
2018-11-02T13:09:54.158Z,48.10
2018-11-02T13:14:57.346Z,53.60
2018-11-02T13:20:00.540Z,57.70
2018-11-02T13:25:03.686Z,60.50
2018-11-02T13:30:07.498Z,63.40
2018-11-02T13:35:12.961Z,66.30
2018-11-02T13:40:17.186Z,68.70
2018-11-02T13:45:20.360Z,68.90
2018-11-02T13:50:23.585Z,69.30
2018-11-02T13:55:26.675Z,70.30
2018-11-02T14:00:29.768Z,71.00
2018-11-02T14:05:32.908Z,72.50
2018-11-02T14:10:35.972Z,73.00
2018-11-02T14:15:39.157Z,73.80
2018-11-02T14:20:42.383Z,74.40
2018-11-02T14:25:45.516Z,74.10
2018-11-02T14:30:48.644Z,75.00
2018-11-02T14:35:51.797Z,75.80
2018-11-02T14:40:55.029Z,76.40
2018-11-02T14:45:58.042Z,76.40
2018-11-02T14:51:01.225Z,77.20
2018-11-02T14:56:06.811Z,77.50
2018-11-02T15:01:10.081Z,76.90
2018-11-02T15:06:13.205Z,77.80
2018-11-02T15:11:16.374Z,77.20
2018-11-02T15:16:19.479Z,77.50
2018-11-02T15:21:22.657Z,78.10
2018-11-02T15:26:25.821Z,79.50
2018-11-02T15:31:28.927Z,80.80
2018-11-02T15:36:32.107Z,81.80
2018-11-02T15:41:35.224Z,82.80
2018-11-02T15:46:38.328Z,82.30
2018-11-02T15:51:41.481Z,82.60
2018-11-02T15:56:44.664Z,84.60
2018-11-02T16:01:47.774Z,82.50
2018-11-02T16:06:50.937Z,80.50
2018-11-02T16:11:54.097Z,81.00
2018-11-02T16:16:57.269Z,82.40
2018-11-02T16:22:00.351Z,83.40
2018-11-02T16:27:03.520Z,84.00
2018-11-02T16:32:06.680Z,84.40
2018-11-02T16:37:09.832Z,84.20
2018-11-02T16:42:12.979Z,83.90
2018-11-02T16:47:16.120Z,84.10
2018-11-02T16:52:19.371Z,84.40
2018-11-02T16:57:22.560Z,84.90
2018-11-02T17:02:25.723Z,84.50
2018-11-02T17:07:28.820Z,84.20
2018-11-02T17:12:32.003Z,84.10
2018-11-02T17:17:35.328Z,84.40
2018-11-02T17:22:38.428Z,83.10
2018-11-02T17:27:41.540Z,82.60
2018-11-02T17:32:44.704Z,81.20
2018-11-02T17:37:47.826Z,80.60
2018-11-02T17:42:50.965Z,80.50
2018-11-02T17:47:54.135Z,80.80
2018-11-02T17:52:57.261Z,81.70
2018-11-02T17:58:00.436Z,81.50
2018-11-02T18:03:03.664Z,81.60
2018-11-02T18:08:06.822Z,81.60
2018-11-02T18:13:10.048Z,81.90
2018-11-02T18:18:16.526Z,82.40
2018-11-02T18:23:19.703Z,82.70
2018-11-02T18:28:22.806Z,82.90
2018-11-02T18:33:26.019Z,83.60
2018-11-02T18:38:29.227Z,83.70
2018-11-02T18:43:32.303Z,84.40
2018-11-02T18:48:35.505Z,85.00
2018-11-02T18:53:38.621Z,85.30
2018-11-02T18:58:41.740Z,85.30
2018-11-02T19:03:44.896Z,85.40
2018-11-02T19:08:48.093Z,85.90
2018-11-02T19:13:51.302Z,85.90
2018-11-02T19:18:54.717Z,86.40
2018-11-02T19:23:57.951Z,86.50
2018-11-02T19:29:01.076Z,86.30
2018-11-02T19:34:04.382Z,86.20
2018-11-02T19:39:08.668Z,87.30
2018-11-02T19:44:11.936Z,87.30
2018-11-02T19:49:14.965Z,87.90
2018-11-02T19:54:18.154Z,88.20
2018-11-02T19:59:21.371Z,87.10
2018-11-02T20:04:24.484Z,85.30
2018-11-02T20:09:27.689Z,84.70
2018-11-02T20:14:30.754Z,82.90
2018-11-02T20:19:33.899Z,79.40
2018-11-02T20:24:37.053Z,78.60
2018-11-02T20:29:40.258Z,79.90
2018-11-02T20:34:43.381Z,80.50
2018-11-02T20:39:46.722Z,80.80
2018-11-02T20:44:49.900Z,79.80
2018-11-02T20:49:53.072Z,81.40
2018-11-02T20:54:56.112Z,81.20
2018-11-02T20:59:59.343Z,82.30
2018-11-02T21:05:02.482Z,83.30
2018-11-02T21:10:07.371Z,84.00
2018-11-02T21:15:23.572Z,84.60
2018-11-02T21:20:27.154Z,85.40
2018-11-02T21:25:30.310Z,84.60
2018-11-02T21:30:33.488Z,85.30
2018-11-02T21:35:36.645Z,85.60
2018-11-02T21:40:39.828Z,85.20
2018-11-02T21:45:42.978Z,85.50
2018-11-02T21:50:46.160Z,85.80
2018-11-02T21:55:49.287Z,87.30
2018-11-02T22:00:52.452Z,88.10
2018-11-02T22:05:55.634Z,89.20
2018-11-02T22:10:58.701Z,90.00
2018-11-02T22:16:01.811Z,90.30
2018-11-02T22:21:04.948Z,89.80
2018-11-02T22:26:08.060Z,89.10
2018-11-02T22:31:11.286Z,89.80
2018-11-02T22:36:14.528Z,89.90
2018-11-02T22:41:17.710Z,89.20
2018-11-02T22:46:20.796Z,88.50
2018-11-02T22:51:23.937Z,88.80
2018-11-02T22:56:27.109Z,88.40
2018-11-02T23:01:30.667Z,87.70
2018-11-02T23:06:33.813Z,85.50
2018-11-02T23:11:37.118Z,85.00
2018-11-02T23:16:40.298Z,80.90
2018-11-02T23:21:43.384Z,82.00
2018-11-02T23:26:46.531Z,84.10
2018-11-02T23:31:49.668Z,85.40
2018-11-02T23:36:52.817Z,85.90
2018-11-02T23:41:55.920Z,86.50
2018-11-02T23:46:59.093Z,85.70
2018-11-02T23:52:02.215Z,85.10
2018-11-02T23:57:05.574Z,84.60
